sensor_id;sensor_type;location;lat;lon;timestamp;pressure;altitude;pressure_sealevel;temperature;humidity
32320;BME280;19080;51.750;5.888;2023-05-10T00:00:54;100606.53;;;14.05;100.00
32320;BME280;19080;51.750;5.888;2023-05-10T00:03:21;100605.63;;;14.07;100.00
32320;BME280;19080;51.750;5.888;2023-05-10T00:05:48;100618.97;;;14.18;100.00
32320;BME280;19080;51.750;5.888;2023-05-10T00:08:14;100603.84;;;14.09;100.00
32320;BME280;19080;51.750;5.888;2023-05-10T00:10:41;100589.66;;;14.01;100.00
32320;BME280;19080;51.750;5.888;2023-05-10T00:13:08;100624.28;;;14.21;100.00
32320;BME280;19080;51.750;5.888;2023-05-10T00:15:34;100616.28;;;14.16;100.00
32320;BME280;19080;51.750;5.888;2023-05-10T00:18:01;100620.72;;;14.20;100.00
32320;BME280;19080;51.750;5.888;2023-05-10T00:20:29;100590.53;;;14.00;100.00
32320;BME280;19080;51.750;5.888;2023-05-10T00:22:56;100603.88;;;14.06;100.00
32320;BME280;19080;51.750;5.888;2023-05-10T00:25:22;100616.28;;;14.16;100.00
32320;BME280;19080;51.750;5.888;2023-05-10T00:27:49;100610.06;;;14.14;100.00
32320;BME280;19080;51.750;5.888;2023-05-10T00:30:16;100578.97;;;14.04;100.00
32320;BME280;19080;51.750;5.888;2023-05-10T00:32:43;100598.50;;;14.12;100.00
32320;BME280;19080;51.750;5.888;2023-05-10T00:35:11;100619.84;;;14.18;100.00
32320;BME280;19080;51.750;5.888;2023-05-10T00:37:37;100586.06;;;14.08;100.00
32320;BME280;19080;51.750;5.888;2023-05-10T00:40:05;100602.06;;;14.17;100.00
32320;BME280;19080;51.750;5.888;2023-05-10T00:42:32;100609.16;;;14.24;100.00
32320;BME280;19080;51.750;5.888;2023-05-10T00:44:59;100609.16;;;14.24;100.00
32320;BME280;19080;51.750;5.888;2023-05-10T00:47:25;100599.34;;;14.23;100.00
32320;BME280;19080;51.750;5.888;2023-05-10T00:50:07;100608.25;;;14.27;100.00
32320;BME280;19080;51.750;5.888;2023-05-10T00:52:35;100605.59;;;14.24;100.00
32320;BME280;19080;51.750;5.888;2023-05-10T00:55:02;100600.25;;;14.25;100.00
32320;BME280;19080;51.750;5.888;2023-05-10T00:57:30;100619.78;;;14.37;100.00
32320;BME280;19080;51.750;5.888;2023-05-10T00:59:57;100613.56;;;14.31;100.00
32320;BME280;19080;51.750;5.888;2023-05-10T01:02:25;100619.78;;;14.43;100.00
32320;BME280;19080;51.750;5.888;2023-05-10T01:04:52;100599.34;;;14.29;100.00
32320;BME280;19080;51.750;5.888;2023-05-10T01:07:18;100598.44;;;14.30;100.00
32320;BME280;19080;51.750;5.888;2023-05-10T01:09:45;100605.56;;;14.28;100.00
32320;BME280;19080;51.750;5.888;2023-05-10T01:12:12;100548.75;;;13.96;100.00
32320;BME280;19080;51.750;5.888;2023-05-10T01:14:39;100624.22;;;14.41;100.00
32320;BME280;19080;51.750;5.888;2023-05-10T01:17:07;100513.25;;;13.79;100.00
32320;BME280;19080;51.750;5.888;2023-05-10T01:19:35;100552.28;;;14.01;100.00
32320;BME280;19080;51.750;5.888;2023-05-10T01:22:06;100626.03;;;14.31;100.00
32320;BME280;19080;51.750;5.888;2023-05-10T01:30:22;100621.56;;;14.38;100.00
32320;BME280;19080;51.750;5.888;2023-05-10T01:38:38;100610.03;;;14.29;100.00
32320;BME280;19080;51.750;5.888;2023-05-10T01:41:21;100589.59;;;14.16;100.00
32320;BME280;19080;51.750;5.888;2023-05-10T01:44:06;100605.59;;;14.24;100.00
32320;BME280;19080;51.750;5.888;2023-05-10T01:46:37;100622.47;;;14.30;100.00
32320;BME280;19080;51.750;5.888;2023-05-10T01:49:10;100593.19;;;14.09;100.00
32320;BME280;19080;51.750;5.888;2023-05-10T01:51:45;100587.88;;;14.03;100.00
32320;BME280;19080;51.750;5.888;2023-05-10T01:54:17;100590.56;;;13.95;100.00
32320;BME280;19080;51.750;5.888;2023-05-10T01:56:47;100589.66;;;14.01;100.00
32320;BME280;19080;51.750;5.888;2023-05-10T01:59:18;100609.19;;;14.09;100.00
32320;BME280;19080;51.750;5.888;2023-05-10T02:01:47;100583.47;;;13.87;100.00
32320;BME280;19080;51.750;5.888;2023-05-10T02:04:17;100612.75;;;14.11;100.00
32320;BME280;19080;51.750;5.888;2023-05-10T02:06:47;100618.97;;;14.10;100.00
32320;BME280;19080;51.750;5.888;2023-05-10T02:09:15;100601.22;;;13.95;100.00
32320;BME280;19080;51.750;5.888;2023-05-10T02:11:43;100619.88;;;14.08;100.00
32320;BME280;19080;51.750;5.888;2023-05-10T02:14:11;100617.22;;;14.06;100.00
32320;BME280;19080;51.750;5.888;2023-05-10T02:16:39;100616.34;;;13.95;100.00
32320;BME280;19080;51.750;5.888;2023-05-10T02:19:07;100619.91;;;13.97;100.00
32320;BME280;19080;51.750;5.888;2023-05-10T02:21:35;100619.03;;;13.89;100.00
32320;BME280;19080;51.750;5.888;2023-05-10T02:24:04;100637.69;;;13.90;100.00
32320;BME280;19080;51.750;5.888;2023-05-10T02:26:33;100528.47;;;13.28;100.00
32320;BME280;19080;51.750;5.888;2023-05-10T02:29:05;100553.34;;;13.47;100.00
32320;BME280;19080;51.750;5.888;2023-05-10T02:31:33;100645.69;;;13.93;100.00
32320;BME280;19080;51.750;5.888;2023-05-10T02:34:02;100626.19;;;13.81;100.00
32320;BME280;19080;51.750;5.888;2023-05-10T02:36:30;100619.97;;;13.76;100.00
32320;BME280;19080;51.750;5.888;2023-05-10T02:38:59;100639.53;;;13.79;100.00
32320;BME280;19080;51.750;5.888;2023-05-10T02:41:28;100643.09;;;13.80;100.00
32320;BME280;19080;51.750;5.888;2023-05-10T02:43:59;100613.78;;;13.60;100.00
32320;BME280;19080;51.750;5.888;2023-05-10T02:46:27;100652.88;;;13.78;100.00
32320;BME280;19080;51.750;5.888;2023-05-10T02:48:55;100628.88;;;13.55;100.00
32320;BME280;19080;51.750;5.888;2023-05-10T02:51:24;100586.22;;;13.24;100.00
32320;BME280;19080;51.750;5.888;2023-05-10T02:53:55;100627.09;;;13.52;100.00
32320;BME280;19080;51.750;5.888;2023-05-10T02:56:34;100623.53;;;13.53;100.00
32320;BME280;19080;51.750;5.888;2023-05-10T02:59:01;100660.88;;;13.65;100.00
32320;BME280;19080;51.750;5.888;2023-05-10T03:01:29;100644.00;;;13.57;100.00
32320;BME280;19080;51.750;5.888;2023-05-10T03:03:56;100632.44;;;13.60;100.00
32320;BME280;19080;51.750;5.888;2023-05-10T03:06:23;100634.22;;;13.64;100.00
32320;BME280;19080;51.750;5.888;2023-05-10T03:08:50;100632.44;;;13.61;100.00
32320;BME280;19080;51.750;5.888;2023-05-10T03:12:31;100661.75;;;13.80;100.00
32320;BME280;19080;51.750;5.888;2023-05-10T03:14:40;100653.75;;;13.80;100.00
32320;BME280;19080;51.750;5.888;2023-05-10T03:17:15;100652.88;;;13.85;100.00
32320;BME280;19080;51.750;5.888;2023-05-10T03:19:53;100660.88;;;13.84;100.00
32320;BME280;19080;51.750;5.888;2023-05-10T03:22:31;100626.22;;;13.68;100.00
32320;BME280;19080;51.750;5.888;2023-05-10T03:25:00;100638.66;;;13.76;100.00
32320;BME280;19080;51.750;5.888;2023-05-10T03:27:35;100639.53;;;13.78;100.00
32320;BME280;19080;51.750;5.888;2023-05-10T03:30:03;100653.75;;;13.83;100.00
32320;BME280;19080;51.750;5.888;2023-05-10T03:32:32;100612.88;;;13.56;100.00
32320;BME280;19080;51.750;5.888;2023-05-10T03:35:06;100658.16;;;13.91;100.00
32320;BME280;19080;51.750;5.888;2023-05-10T03:37:35;100668.81;;;13.96;100.00
32320;BME280;19080;51.750;5.888;2023-05-10T03:40:02;100651.09;;;13.84;100.00
32320;BME280;19080;51.750;5.888;2023-05-10T03:42:32;100637.75;;;13.81;100.00
32320;BME280;19080;51.750;5.888;2023-05-10T03:44:59;100653.75;;;13.83;100.00
32320;BME280;19080;51.750;5.888;2023-05-10T03:47:25;100675.94;;;13.92;100.00
32320;BME280;19080;51.750;5.888;2023-05-10T03:49:52;100673.28;;;13.91;100.00
32320;BME280;19080;51.750;5.888;2023-05-10T03:52:19;100662.59;;;13.88;100.00
32320;BME280;19080;51.750;5.888;2023-05-10T03:54:47;100648.41;;;13.86;100.00
32320;BME280;19080;51.750;5.888;2023-05-10T03:57:14;100654.66;;;13.85;100.00
32320;BME280;19080;51.750;5.888;2023-05-10T03:59:41;100667.03;;;13.93;100.00
32320;BME280;19080;51.750;5.888;2023-05-10T04:02:07;100683.94;;;14.00;100.00
32320;BME280;19080;51.750;5.888;2023-05-10T04:04:35;100682.16;;;14.02;100.00
32320;BME280;19080;51.750;5.888;2023-05-10T04:07:02;100663.50;;;13.91;100.00
32320;BME280;19080;51.750;5.888;2023-05-10T04:09:29;100667.94;;;14.00;100.00
32320;BME280;19080;51.750;5.888;2023-05-10T04:11:56;100678.59;;;13.97;100.00
32320;BME280;19080;51.750;5.888;2023-05-10T04:14:22;100667.03;;;13.98;100.00
32320;BME280;19080;51.750;5.888;2023-05-10T04:16:49;100602.22;;;13.62;100.00
32320;BME280;19080;51.750;5.888;2023-05-10T04:19:16;100667.03;;;14.01;100.00
32320;BME280;19080;51.750;5.888;2023-05-10T04:21:43;100687.47;;;14.14;100.00
32320;BME280;19080;51.750;5.888;2023-05-10T04:24:10;100694.59;;;14.15;100.00
32320;BME280;19080;51.750;5.888;2023-05-10T04:26:38;100684.81;;;14.14;100.00
32320;BME280;19080;51.750;5.888;2023-05-10T04:29:05;100672.38;;;14.02;100.00
32320;BME280;19080;51.750;5.888;2023-05-10T04:31:31;100694.59;;;14.15;100.00
32320;BME280;19080;51.750;5.888;2023-05-10T04:33:58;100683.03;;;14.07;100.00
32320;BME280;19080;51.750;5.888;2023-05-10T04:36:25;100682.16;;;14.04;100.00
32320;BME280;19080;51.750;5.888;2023-05-10T04:38:52;100675.94;;;13.97;100.00
32320;BME280;19080;51.750;5.888;2023-05-10T04:41:19;100670.59;;;14.00;100.00
32320;BME280;19080;51.750;5.888;2023-05-10T04:43:46;100681.25;;;14.08;100.00
32320;BME280;19080;51.750;5.888;2023-05-10T04:46:15;100659.94;;;13.94;100.00
32320;BME280;19080;51.750;5.888;2023-05-10T04:48:42;100653.72;;;13.93;100.00
32320;BME280;19080;51.750;5.888;2023-05-10T04:51:08;100675.03;;;14.02;100.00
32320;BME280;19080;51.750;5.888;2023-05-10T04:53:35;100675.94;;;14.00;100.00
32320;BME280;19080;51.750;5.888;2023-05-10T04:56:02;100689.25;;;14.12;100.00
32320;BME280;19080;51.750;5.888;2023-05-10T04:58:29;100694.59;;;14.18;100.00
32320;BME280;19080;51.750;5.888;2023-05-10T05:00:56;100700.81;;;14.20;100.00
32320;BME280;19080;51.750;5.888;2023-05-10T05:03:22;100687.47;;;14.17;100.00
32320;BME280;19080;51.750;5.888;2023-05-10T05:05:49;100711.47;;;14.31;100.00
32320;BME280;19080;51.750;5.888;2023-05-10T05:08:16;100707.91;;;14.27;100.00
32320;BME280;19080;51.750;5.888;2023-05-10T05:10:42;100715.03;;;14.30;100.00
32320;BME280;19080;51.750;5.888;2023-05-10T05:13:09;100710.59;;;14.27;100.00
32320;BME280;19080;51.750;5.888;2023-05-10T05:15:36;100679.47;;;14.19;100.00
32320;BME280;19080;51.750;5.888;2023-05-10T05:18:02;100707.03;;;14.31;100.00
32320;BME280;19080;51.750;5.888;2023-05-10T05:20:32;100683.00;;;14.19;100.00
32320;BME280;19080;51.750;5.888;2023-05-10T05:23:01;100715.03;;;14.31;100.00
32320;BME280;19080;51.750;5.888;2023-05-10T05:25:28;100696.34;;;14.22;100.00
32320;BME280;19080;51.750;5.888;2023-05-10T05:27:54;100695.47;;;14.25;100.00
32320;BME280;19080;51.750;5.888;2023-05-10T05:30:21;100706.13;;;14.29;100.00
32320;BME280;19080;51.750;5.888;2023-05-10T05:32:48;100722.13;;;14.39;100.00
32320;BME280;19080;51.750;5.888;2023-05-10T05:35:14;100722.16;;;14.46;100.00
32320;BME280;19080;51.750;5.888;2023-05-10T05:37:41;100716.81;;;14.42;100.00
32320;BME280;19080;51.750;5.888;2023-05-10T05:40:13;100704.34;;;14.39;100.00
32320;BME280;19080;51.750;5.888;2023-05-10T05:42:40;100727.47;;;14.39;100.00
32320;BME280;19080;51.750;5.888;2023-05-10T05:45:07;100721.28;;;14.18;100.00
32320;BME280;19080;51.750;5.888;2023-05-10T05:47:35;100721.28;;;14.03;100.00
32320;BME280;19080;51.750;5.888;2023-05-10T05:50:01;100717.75;;;13.93;100.00
32320;BME280;19080;51.750;5.888;2023-05-10T05:52:28;100717.75;;;13.87;100.00
32320;BME280;19080;51.750;5.888;2023-05-10T05:54:54;100707.13;;;13.86;100.00
32320;BME280;19080;51.750;5.888;2023-05-10T05:57:21;100726.63;;;13.94;100.00
32320;BME280;19080;51.750;5.888;2023-05-10T05:59:48;100739.97;;;14.05;100.00
32320;BME280;19080;51.750;5.888;2023-05-10T06:02:15;100721.31;;;13.94;100.00
32320;BME280;19080;51.750;5.888;2023-05-10T06:04:41;100707.13;;;13.86;100.00
32320;BME280;19080;51.750;5.888;2023-05-10T06:07:10;100723.09;;;13.95;100.00
32320;BME280;19080;51.750;5.888;2023-05-10T06:09:36;100711.53;;;13.94;100.00
32320;BME280;19080;51.750;5.888;2023-05-10T06:12:03;100728.41;;;14.01;100.00
32320;BME280;19080;51.750;5.888;2023-05-10T06:14:30;100739.97;;;14.11;100.00
32320;BME280;19080;51.750;5.888;2023-05-10T06:16:56;100752.44;;;14.09;100.00
32320;BME280;19080;51.750;5.888;2023-05-10T06:19:23;100757.78;;;14.09;100.00
32320;BME280;19080;51.750;5.888;2023-05-10T06:21:50;100659.09;;;13.49;100.00
32320;BME280;19080;51.750;5.888;2023-05-10T06:24:19;100759.56;;;14.04;100.00
32320;BME280;19080;51.750;5.888;2023-05-10T06:26:46;100756.00;;;14.05;100.00
32320;BME280;19080;51.750;5.888;2023-05-10T06:29:12;100691.09;;;13.69;100.00
32320;BME280;19080;51.750;5.888;2023-05-10T06:31:39;100742.66;;;14.09;100.00
32320;BME280;19080;51.750;5.888;2023-05-10T06:34:06;100758.66;;;14.27;100.00
32320;BME280;19080;51.750;5.888;2023-05-10T06:36:34;100692.84;;;14.02;100.00
32320;BME280;19080;51.750;5.888;2023-05-10T06:39:00;100739.94;;;14.41;100.00
32320;BME280;19080;51.750;5.888;2023-05-10T06:41:27;100728.34;;;14.41;100.00
32320;BME280;19080;51.750;5.888;2023-05-10T06:43:53;100698.16;;;14.17;100.00
32320;BME280;19080;51.750;5.888;2023-05-10T06:46:20;100776.41;;;14.62;100.00
32320;BME280;19080;51.750;5.888;2023-05-10T06:48:47;100767.53;;;14.57;100.00
32320;BME280;19080;51.750;5.888;2023-05-10T06:51:13;100763.97;;;14.49;100.00
32320;BME280;19080;51.750;5.888;2023-05-10T06:53:40;100787.09;;;14.65;100.00
32320;BME280;19080;51.750;5.888;2023-05-10T06:56:06;100787.09;;;14.62;100.00
32320;BME280;19080;51.750;5.888;2023-05-10T06:58:33;100759.53;;;14.48;100.00
32320;BME280;19080;51.750;5.888;2023-05-10T07:01:04;100769.31;;;14.53;100.00
32320;BME280;19080;51.750;5.888;2023-05-10T07:03:31;100792.44;;;14.63;100.00
32320;BME280;19080;51.750;5.888;2023-05-10T07:06:02;100793.31;;;14.70;100.00
32320;BME280;19080;51.750;5.888;2023-05-10T07:08:30;100795.97;;;14.73;100.00
32320;BME280;19080;51.750;5.888;2023-05-10T07:11:04;100779.09;;;14.63;100.00
32320;BME280;19080;51.750;5.888;2023-05-10T07:13:31;100800.47;;;14.63;100.00
32320;BME280;19080;51.750;5.888;2023-05-10T07:15:59;100805.78;;;14.65;100.00
32320;BME280;19080;51.750;5.888;2023-05-10T07:18:26;100735.50;;;14.26;100.00
32320;BME280;19080;51.750;5.888;2023-05-10T07:20:53;100807.53;;;14.80;100.00
32320;BME280;19080;51.750;5.888;2023-05-10T07:23:19;100810.19;;;14.87;100.00
32320;BME280;19080;51.750;5.888;2023-05-10T07:25:47;100687.47;;;14.17;100.00
32320;BME280;19080;51.750;5.888;2023-05-10T07:28:15;100747.03;;;14.67;100.00
32320;BME280;19080;51.750;5.888;2023-05-10T07:30:42;100788.75;;;15.09;100.00
32320;BME280;19080;51.750;5.888;2023-05-10T07:33:10;100804.69;;;15.30;100.00
32320;BME280;19080;51.750;5.888;2023-05-10T07:35:37;100788.59;;;15.38;100.00
32320;BME280;19080;51.750;5.888;2023-05-10T07:38:03;100809.91;;;15.54;100.00
32320;BME280;19080;51.750;5.888;2023-05-10T07:40:31;100812.47;;;15.71;100.00
32320;BME280;19080;51.750;5.888;2023-05-10T07:42:57;100795.66;;;15.58;100.00
32320;BME280;19080;51.750;5.888;2023-05-10T07:45:24;100763.66;;;15.34;100.00
32320;BME280;19080;51.750;5.888;2023-05-10T07:47:51;100815.22;;;15.60;100.00
32320;BME280;19080;51.750;5.888;2023-05-10T07:50:18;100745.97;;;15.07;100.00
32320;BME280;19080;51.750;5.888;2023-05-10T07:52:44;100826.00;;;15.48;100.00
32320;BME280;19080;51.750;5.888;2023-05-10T07:55:11;100745.09;;;15.02;100.00
32320;BME280;19080;51.750;5.888;2023-05-10T07:57:38;100820.69;;;15.39;100.00
32320;BME280;19080;51.750;5.888;2023-05-10T08:00:06;100823.41;;;15.30;100.00
32320;BME280;19080;51.750;5.888;2023-05-10T08:02:38;100830.59;;;15.17;100.00
32320;BME280;19080;51.750;5.888;2023-05-10T08:05:05;100824.41;;;15.05;100.00
32320;BME280;19080;51.750;5.888;2023-05-10T08:07:32;100833.28;;;15.10;100.00
32320;BME280;19080;51.750;5.888;2023-05-10T08:09:58;100815.50;;;15.03;100.00
32320;BME280;19080;51.750;5.888;2023-05-10T08:12:25;100814.63;;;14.96;100.00
32320;BME280;19080;51.750;5.888;2023-05-10T08:14:52;100819.88;;;15.19;100.00
32320;BME280;19080;51.750;5.888;2023-05-10T08:17:18;100831.38;;;15.39;100.00
32320;BME280;19080;51.750;5.888;2023-05-10T08:19:46;100837.56;;;15.55;100.00
32320;BME280;19080;51.750;5.888;2023-05-10T08:22:13;100803.66;;;15.60;100.00
32320;BME280;19080;51.750;5.888;2023-05-10T08:24:39;100820.41;;;15.88;100.00
32320;BME280;19080;51.750;5.888;2023-05-10T08:27:08;100829.13;;;16.14;100.00
32320;BME280;19080;51.750;5.888;2023-05-10T08:29:34;100821.84;;;16.32;100.00
32320;BME280;19080;51.750;5.888;2023-05-10T08:32:15;100837.72;;;16.56;100.00
32320;BME280;19080;51.750;5.888;2023-05-10T08:34:41;100829.63;;;16.60;100.00
32320;BME280;19080;51.750;5.888;2023-05-10T08:37:08;100856.22;;;16.85;100.00
32320;BME280;19080;51.750;5.888;2023-05-10T08:39:35;100840.13;;;16.85;100.00
32320;BME280;19080;51.750;5.888;2023-05-10T08:42:04;100790.50;;;16.43;100.00
32320;BME280;19080;51.750;5.888;2023-05-10T08:44:35;100830.78;;;16.31;100.00
32320;BME280;19080;51.750;5.888;2023-05-10T08:47:05;100857.75;;;16.06;100.00
32320;BME280;19080;51.750;5.888;2023-05-10T08:49:33;100866.69;;;16.05;100.00
32320;BME280;19080;51.750;5.888;2023-05-10T08:52:03;100856.97;;;15.89;100.00
32320;BME280;19080;51.750;5.888;2023-05-10T08:54:34;100801.91;;;15.50;100.00
32320;BME280;19080;51.750;5.888;2023-05-10T08:57:01;100824.19;;;15.50;100.00
32320;BME280;19080;51.750;5.888;2023-05-10T08:59:28;100848.28;;;15.58;100.00
32320;BME280;19080;51.750;5.888;2023-05-10T09:01:57;100875.81;;;15.71;100.00
32320;BME280;19080;51.750;5.888;2023-05-10T09:04:24;100701.59;;;14.68;100.00
32320;BME280;19080;51.750;5.888;2023-05-10T09:06:51;100859.88;;;15.52;100.00
32320;BME280;19080;51.750;5.888;2023-05-10T09:09:19;100807.28;;;15.44;100.00
32320;BME280;19080;51.750;5.888;2023-05-10T09:11:46;100794.75;;;15.58;100.00
32320;BME280;19080;51.750;5.888;2023-05-10T09:14:13;100825.69;;;15.97;100.00
32320;BME280;19080;51.750;5.888;2023-05-10T09:16:41;100860.94;;;16.54;100.00
32320;BME280;19080;51.750;5.888;2023-05-10T09:19:08;100894.69;;;16.81;100.00
32320;BME280;19080;51.750;5.888;2023-05-10T09:21:36;100828.00;;;16.44;100.00
32320;BME280;19080;51.750;5.888;2023-05-10T09:24:07;100889.25;;;16.87;100.00
32320;BME280;19080;51.750;5.888;2023-05-10T09:26:35;100908.81;;;17.00;100.00
32320;BME280;19080;51.750;5.888;2023-05-10T09:29:02;100893.03;;;16.62;100.00
32320;BME280;19080;51.750;5.888;2023-05-10T09:31:45;100912.06;;;16.26;100.00
32320;BME280;19080;51.750;5.888;2023-05-10T09:34:28;100906.97;;;15.87;100.00
32320;BME280;19080;51.750;5.888;2023-05-10T09:36:57;100871.53;;;15.30;100.00
32320;BME280;19080;51.750;5.888;2023-05-10T09:39:31;100909.00;;;15.25;100.00
32320;BME280;19080;51.750;5.888;2023-05-10T09:42:07;100933.06;;;15.22;100.00
32320;BME280;19080;51.750;5.888;2023-05-10T09:44:34;100858.34;;;14.72;100.00
32320;BME280;19080;51.750;5.888;2023-05-10T09:47:02;100924.22;;;15.01;100.00
32320;BME280;19080;51.750;5.888;2023-05-10T09:49:29;100852.13;;;14.46;100.00
32320;BME280;19080;51.750;5.888;2023-05-10T09:52:00;100921.53;;;14.90;100.00
32320;BME280;19080;51.750;5.888;2023-05-10T09:54:28;100930.41;;;15.15;100.00
32320;BME280;19080;51.750;5.888;2023-05-10T09:56:54;100909.91;;;15.14;100.00
32320;BME280;19080;51.750;5.888;2023-05-10T09:59:21;100923.28;;;15.12;100.00
32320;BME280;19080;51.750;5.888;2023-05-10T10:01:52;100890.38;;;14.86;100.00
32320;BME280;19080;51.750;5.888;2023-05-10T10:04:19;100879.72;;;14.69;100.00
32320;BME280;19080;51.750;5.888;2023-05-10T10:06:58;100873.47;;;14.64;100.00
32320;BME280;19080;51.750;5.888;2023-05-10T10:09:25;100942.94;;;14.88;100.00
32320;BME280;19080;51.750;5.888;2023-05-10T10:11:52;100947.38;;;14.83;100.00
32320;BME280;19080;51.750;5.888;2023-05-10T10:14:20;100939.38;;;14.82;100.00
32320;BME280;19080;51.750;5.888;2023-05-10T10:16:49;100916.22;;;14.69;100.00
32320;BME280;19080;51.750;5.888;2023-05-10T10:19:34;100938.47;;;15.00;100.00
32320;BME280;19080;51.750;5.888;2023-05-10T10:22:02;100891.28;;;14.82;100.00
32320;BME280;19080;51.750;5.888;2023-05-10T10:24:29;100949.97;;;15.38;100.00
32320;BME280;19080;51.750;5.888;2023-05-10T10:27:01;100928.56;;;15.41;100.00
32320;BME280;19080;51.750;5.888;2023-05-10T10:29:50;100870.63;;;15.40;100.00
32320;BME280;19080;51.750;5.888;2023-05-10T10:32:38;100880.28;;;15.73;100.00
32320;BME280;19080;51.750;5.888;2023-05-10T10:35:08;100953.94;;;16.40;100.00
32320;BME280;19080;51.750;5.888;2023-05-10T10:37:47;100886.25;;;16.16;100.00
32320;BME280;19080;51.750;5.888;2023-05-10T10:40:23;100953.84;;;16.55;100.00
32320;BME280;19080;51.750;5.888;2023-05-10T10:42:51;100886.25;;;16.16;100.00
32320;BME280;19080;51.750;5.888;2023-05-10T10:45:18;100945.91;;;16.38;100.00
32320;BME280;19080;51.750;5.888;2023-05-10T10:47:45;100893.47;;;16.05;100.00
32320;BME280;19080;51.750;5.888;2023-05-10T10:50:12;100942.50;;;16.13;100.00
32320;BME280;19080;51.750;5.888;2023-05-10T10:52:40;100887.44;;;15.67;100.00
32320;BME280;19080;51.750;5.888;2023-05-10T10:55:08;100947.97;;;15.92;100.00
32320;BME280;19080;51.750;5.888;2023-05-10T10:57:54;100952.47;;;15.84;100.00
32320;BME280;19080;51.750;5.888;2023-05-10T11:00:31;100931.97;;;15.84;100.00
32320;BME280;19080;51.750;5.888;2023-05-10T11:02:59;100935.41;;;16.08;100.00
32320;BME280;19080;51.750;5.888;2023-05-10T11:08:14;100946.63;;;16.66;100.00
32320;BME280;19080;51.750;5.888;2023-05-10T11:16:15;100963.69;;;17.49;100.00
32320;BME280;19080;51.750;5.888;2023-05-10T11:19:02;100954.28;;;17.90;100.00
32320;BME280;19080;51.750;5.888;2023-05-10T11:21:30;100905.28;;;17.71;100.00
32320;BME280;19080;51.750;5.888;2023-05-10T11:23:59;100959.19;;;18.24;100.00
32320;BME280;19080;51.750;5.888;2023-05-10T11:26:30;100953.44;;;18.48;100.00
32320;BME280;19080;51.750;5.888;2023-05-10T11:28:59;100901.84;;;18.25;100.00
32320;BME280;19080;51.750;5.888;2023-05-10T11:31:28;100961.03;;;18.80;100.00
32320;BME280;19080;51.750;5.888;2023-05-10T11:33:57;100901.25;;;18.64;100.00
32320;BME280;19080;51.750;5.888;2023-05-10T11:36:25;100965.09;;;19.04;100.00
32320;BME280;19080;51.750;5.888;2023-05-10T11:38:53;100902.91;;;18.71;100.00
32320;BME280;19080;51.750;5.888;2023-05-10T11:41:21;100974.75;;;19.14;100.00
32320;BME280;19080;51.750;5.888;2023-05-10T11:43:52;100970.53;;;19.01;100.00
32320;BME280;19080;51.750;5.888;2023-05-10T11:46:21;100971.59;;;18.91;100.00
32320;BME280;19080;51.750;5.888;2023-05-10T11:48:53;100970.47;;;19.04;100.00
32320;BME280;19080;51.750;5.888;2023-05-10T11:51:21;100961.66;;;18.96;100.00
32320;BME280;19080;51.750;5.888;2023-05-10T11:53:55;100956.84;;;19.13;100.00
32320;BME280;19080;51.750;5.888;2023-05-10T11:56:22;100957.63;;;19.66;100.00
32320;BME280;19080;51.750;5.888;2023-05-10T11:58:57;100954.03;;;20.08;100.00
32320;BME280;19080;51.750;5.888;2023-05-10T12:01:25;100934.72;;;20.28;100.00
32320;BME280;19080;51.750;5.888;2023-05-10T12:03:54;100954.25;;;20.38;100.00
32320;BME280;19080;51.750;5.888;2023-05-10T12:06:21;100969.59;;;20.36;100.00
32320;BME280;19080;51.750;5.888;2023-05-10T12:08:49;100968.75;;;20.34;100.00
32320;BME280;19080;51.750;5.888;2023-05-10T12:11:24;100871.06;;;19.84;100.00
32320;BME280;19080;51.750;5.888;2023-05-10T12:13:51;100978.75;;;20.29;100.00
32320;BME280;19080;51.750;5.888;2023-05-10T12:16:20;100927.97;;;20.09;100.00
32320;BME280;19080;51.750;5.888;2023-05-10T12:18:51;100976.06;;;20.27;100.00
32320;BME280;19080;51.750;5.888;2023-05-10T12:21:21;100962.69;;;20.23;100.00
32320;BME280;19080;51.750;5.888;2023-05-10T12:23:50;100964.78;;;20.10;100.00
32320;BME280;19080;51.750;5.888;2023-05-10T12:26:17;100966.03;;;19.94;100.00
32320;BME280;19080;51.750;5.888;2023-05-10T12:28:43;100965.53;;;19.75;100.00
32320;BME280;19080;51.750;5.888;2023-05-10T12:31:10;100916.88;;;19.38;100.00
32320;BME280;19080;51.750;5.888;2023-05-10T12:33:39;100982.81;;;19.14;100.00
32320;BME280;19080;51.750;5.888;2023-05-10T12:36:11;100961.00;;;19.29;100.00
32320;BME280;19080;51.750;5.888;2023-05-10T12:38:40;100981.50;;;19.84;100.00
32320;BME280;19080;51.750;5.888;2023-05-10T12:41:10;100971.28;;;20.00;100.00
32320;BME280;19080;51.750;5.888;2023-05-10T12:43:38;100978.59;;;19.95;100.00
32320;BME280;19080;51.750;5.888;2023-05-10T12:48:37;100982.13;;;19.54;100.00
32320;BME280;19080;51.750;5.888;2023-05-10T12:51:04;100930.78;;;19.15;100.00
32320;BME280;19080;51.750;5.888;2023-05-10T12:53:31;100836.28;;;18.35;100.00
32320;BME280;19080;51.750;5.888;2023-05-10T12:55:58;100990.94;;;19.11;100.00
32320;BME280;19080;51.750;5.888;2023-05-10T12:58:24;100940.97;;;18.44;100.00
32320;BME280;19080;51.750;5.888;2023-05-10T13:01:01;100926.94;;;18.24;100.00
32320;BME280;19080;51.750;5.888;2023-05-10T13:03:28;101005.44;;;18.47;100.00
32320;BME280;19080;51.750;5.888;2023-05-10T13:05:55;100994.13;;;18.22;100.00
32320;BME280;19080;51.750;5.888;2023-05-10T13:08:22;100989.97;;;18.00;100.00
32320;BME280;19080;51.750;5.888;2023-05-10T13:10:48;101004.59;;;17.73;100.00